Time;durP1;ratioP1;P1;durP2;ratioP2;P2;SDS_P1;SDS_P2;PMS_P1;PMS_P2;Temp;Humidity;BMP_temperature;BMP_pressure;BME280_temperature;BME280_humidity;BME280_pressure;Samples;Min_cycle;Max_cycle;Signal;HPM_P1;HPM_P2
2022/06/21 00:02:20;;;;;;;2.17;1.80;;;16.00;99.90;;;;;;4952080;28;20468;-70
2022/06/21 00:04:47;;;;;;;1.57;1.47;;;16.00;99.90;;;;;;4952287;28;20471;-69
2022/06/21 00:07:21;;;;;;;4.23;2.00;;;16.10;99.90;;;;;;4953896;28;20494;-69
2022/06/21 00:09:48;;;;;;;1.70;1.60;;;16.00;99.90;;;;;;4955471;28;20463;-69
2022/06/21 00:12:16;;;;;;;1.60;1.50;;;16.00;99.90;;;;;;4956124;28;20463;-69
2022/06/21 00:14:44;;;;;;;1.67;1.57;;;16.00;99.90;;;;;;4956048;28;20871;-69
2022/06/21 00:17:13;;;;;;;1.83;1.60;;;16.00;99.90;;;;;;4955474;28;20487;-69
2022/06/21 00:19:41;;;;;;;2.30;1.70;;;16.00;99.90;;;;;;4955118;28;20488;-69
2022/06/21 00:22:11;;;;;;;2.13;1.93;;;16.00;99.90;;;;;;4955542;28;20467;-69
2022/06/21 00:24:38;;;;;;;2.60;1.60;;;16.00;99.90;;;;;;4955738;28;20471;-68
2022/06/21 00:27:12;;;;;;;2.47;1.53;;;16.00;99.90;;;;;;4955399;28;20490;-70
2022/06/21 00:29:40;;;;;;;2.40;1.77;;;16.10;99.90;;;;;;4954899;28;20483;-68
2022/06/21 00:32:11;;;;;;;2.03;1.67;;;16.10;99.90;;;;;;4955347;28;20475;-69
2022/06/21 00:34:38;;;;;;;2.47;1.77;;;16.10;99.90;;;;;;4955484;28;20825;-69
2022/06/21 00:37:05;;;;;;;1.77;1.67;;;16.10;99.90;;;;;;4955109;28;21019;-70
2022/06/21 00:39:32;;;;;;;2.80;2.13;;;16.10;99.90;;;;;;4954611;28;20491;-70
2022/06/21 00:42:04;;;;;;;2.20;1.80;;;16.10;99.90;;;;;;4955269;28;20463;-69
2022/06/21 00:44:36;;;;;;;2.53;2.20;;;16.10;99.90;;;;;;4955378;28;20471;-70
2022/06/21 00:47:07;;;;;;;2.00;1.80;;;16.10;99.90;;;;;;4955050;28;20480;-69
2022/06/21 00:49:40;;;;;;;2.20;1.73;;;16.10;99.90;;;;;;4954547;28;20467;-69
2022/06/21 00:52:14;;;;;;;3.13;2.23;;;16.20;99.90;;;;;;4954971;28;20478;-69
2022/06/21 00:54:51;;;;;;;2.27;1.97;;;16.20;99.90;;;;;;4955159;28;20962;-68
2022/06/21 00:57:21;;;;;;;2.20;1.80;;;16.20;99.90;;;;;;4955177;28;20559;-70
2022/06/21 00:59:50;;;;;;;2.20;2.00;;;16.20;99.90;;;;;;4954335;28;21271;-69
2022/06/21 01:02:22;;;;;;;1.60;1.50;;;16.20;99.90;;;;;;4954731;28;20464;-69
2022/06/21 01:04:52;;;;;;;1.83;1.67;;;16.20;99.90;;;;;;4954796;28;20866;-69
2022/06/21 01:07:18;;;;;;;1.70;1.60;;;16.20;99.90;;;;;;4954597;28;20498;-69
2022/06/21 01:09:51;;;;;;;3.23;2.07;;;16.30;99.90;;;;;;4954194;28;20471;-69
2022/06/21 01:12:23;;;;;;;1.93;1.73;;;16.30;99.90;;;;;;4954685;28;20831;-68
2022/06/21 01:14:55;;;;;;;2.17;1.70;;;16.30;99.90;;;;;;4954688;28;20475;-69
2022/06/21 01:17:24;;;;;;;2.20;1.73;;;16.30;99.90;;;;;;4954143;28;20495;-69
2022/06/21 01:19:56;;;;;;;2.63;1.80;;;16.30;99.90;;;;;;4953749;28;20496;-69
2022/06/21 01:22:33;;;;;;;1.60;1.50;;;16.30;99.90;;;;;;4954761;28;20475;-69
2022/06/21 01:25:16;;;;;;;2.20;1.50;;;16.30;99.90;;;;;;4954473;28;20468;-69
2022/06/21 01:27:45;;;;;;;2.63;2.40;;;16.30;99.90;;;;;;4954331;28;20483;-70
2022/06/21 01:30:13;;;;;;;2.20;2.00;;;16.30;99.90;;;;;;4953856;28;20464;-69
2022/06/21 01:32:39;;;;;;;1.50;1.40;;;16.30;99.90;;;;;;4954430;28;20471;-69
2022/06/21 01:35:11;;;;;;;1.97;1.50;;;16.30;99.90;;;;;;4954117;28;20474;-69
2022/06/21 01:37:39;;;;;;;1.90;1.70;;;16.30;99.90;;;;;;4954382;28;20496;-69
2022/06/21 01:40:11;;;;;;;2.50;2.10;;;16.20;99.90;;;;;;4953770;28;20496;-68
2022/06/21 01:42:41;;;;;;;3.53;2.20;;;16.20;99.90;;;;;;4954263;28;20554;-68
2022/06/21 01:45:13;;;;;;;1.87;1.77;;;16.10;99.90;;;;;;4953917;28;20478;-68
2022/06/21 01:47:44;;;;;;;2.13;1.90;;;16.00;99.90;;;;;;4954072;28;20495;-69
2022/06/21 01:50:11;;;;;;;2.53;2.33;;;15.90;99.90;;;;;;4953136;28;20959;-69
2022/06/21 01:52:43;;;;;;;2.23;1.90;;;15.90;99.90;;;;;;4953996;28;20470;-69
2022/06/21 01:55:14;;;;;;;2.30;2.03;;;15.80;99.90;;;;;;4953744;28;20515;-69
2022/06/21 01:57:41;;;;;;;1.63;1.53;;;15.70;99.90;;;;;;4953784;28;20487;-69
2022/06/21 02:00:10;;;;;;;2.83;1.80;;;15.70;99.90;;;;;;4952896;28;20490;-69
2022/06/21 02:02:41;;;;;;;3.13;2.00;;;15.60;99.90;;;;;;4953825;28;20468;-69
2022/06/21 02:05:10;;;;;;;2.37;1.90;;;15.50;99.90;;;;;;4953480;28;20468;-69
2022/06/21 02:07:43;;;;;;;2.10;1.90;;;15.50;99.90;;;;;;4953829;28;20490;-69
2022/06/21 02:10:19;;;;;;;1.70;1.57;;;15.40;99.90;;;;;;4953152;28;20460;-69
2022/06/21 02:12:50;;;;;;;2.30;2.10;;;15.40;99.90;;;;;;4953595;28;20951;-69
2022/06/21 02:15:28;;;;;;;3.67;2.10;;;15.30;99.90;;;;;;4953656;28;20499;-69
2022/06/21 02:17:56;;;;;;;1.70;1.60;;;15.30;99.90;;;;;;4953459;28;20479;-70
2022/06/21 02:20:30;;;;;;;1.70;1.60;;;15.20;99.90;;;;;;4952999;28;20492;-70
2022/06/21 02:22:56;;;;;;;2.07;1.90;;;15.20;99.90;;;;;;4953323;28;20475;-70
2022/06/21 02:25:25;;;;;;;2.17;1.50;;;15.10;99.90;;;;;;4953555;28;20501;-70
2022/06/21 02:27:59;;;;;;;2.00;1.80;;;15.10;99.90;;;;;;4953199;28;20496;-69
2022/06/21 02:30:29;;;;;;;2.03;1.83;;;15.10;99.90;;;;;;4952368;28;20836;-69
2022/06/21 02:32:59;;;;;;;1.53;1.43;;;15.00;99.90;;;;;;4953212;28;20471;-69
2022/06/21 02:35:31;;;;;;;1.70;1.60;;;15.00;99.90;;;;;;4953437;28;20554;-69
2022/06/21 02:38:01;;;;;;;1.70;1.60;;;14.90;99.90;;;;;;4953111;28;20494;-69
2022/06/21 02:40:32;;;;;;;2.30;1.53;;;14.80;99.90;;;;;;4952526;28;21101;-69
2022/06/21 02:43:03;;;;;;;2.10;1.80;;;14.80;99.90;;;;;;4953135;28;20555;-70
2022/06/21 02:45:36;;;;;;;3.50;1.90;;;14.80;99.90;;;;;;4953231;28;20471;-69
2022/06/21 02:48:05;;;;;;;2.40;2.20;;;14.70;99.90;;;;;;4952709;28;20484;-70
2022/06/21 02:50:37;;;;;;;2.87;1.83;;;14.70;99.90;;;;;;4952517;28;20460;-69
2022/06/21 02:53:12;;;;;;;2.60;2.00;;;14.60;99.90;;;;;;4952976;28;20555;-69
2022/06/21 02:55:44;;;;;;;4.60;2.00;;;14.50;99.90;;;;;;4953071;28;20459;-69
2022/06/21 02:58:20;;;;;;;2.23;2.03;;;14.50;99.90;;;;;;4952706;28;20526;-69
2022/06/21 03:00:49;;;;;;;2.07;1.87;;;14.50;99.90;;;;;;4952365;28;20487;-68
2022/06/21 03:03:20;;;;;;;2.30;1.87;;;14.40;99.90;;;;;;4952709;28;20464;-69
2022/06/21 03:05:50;;;;;;;1.83;1.63;;;14.40;99.90;;;;;;4952781;28;20468;-69
2022/06/21 03:08:17;;;;;;;2.30;2.03;;;14.40;99.90;;;;;;4952649;28;20825;-69
2022/06/21 03:10:48;;;;;;;3.63;2.17;;;14.30;99.90;;;;;;4952220;28;20460;-70
2022/06/21 03:13:17;;;;;;;1.93;1.70;;;14.30;99.90;;;;;;4952773;28;20840;-69
2022/06/21 03:15:50;;;;;;;2.33;2.13;;;14.30;99.90;;;;;;4952694;28;20456;-68
2022/06/21 03:18:20;;;;;;;2.13;2.03;;;14.20;99.90;;;;;;4952779;28;20836;-69
2022/06/21 03:20:48;;;;;;;3.47;2.10;;;14.20;99.90;;;;;;4952273;28;20861;-69
2022/06/21 03:23:15;;;;;;;4.10;1.97;;;14.20;99.90;;;;;;4952924;28;20495;-69
2022/06/21 03:25:46;;;;;;;3.33;2.13;;;14.20;99.90;;;;;;4952631;28;20464;-70
2022/06/21 03:28:24;;;;;;;2.90;2.23;;;14.10;99.90;;;;;;4952687;28;20495;-69
2022/06/21 03:30:57;;;;;;;2.97;2.57;;;14.10;99.90;;;;;;4952121;28;20459;-69
2022/06/21 03:33:24;;;;;;;3.07;1.80;;;14.10;99.90;;;;;;4952476;28;20472;-69
2022/06/21 03:35:51;;;;;;;2.70;1.63;;;14.10;99.90;;;;;;4952413;28;20464;-69
2022/06/21 03:38:18;;;;;;;2.50;2.30;;;14.10;99.90;;;;;;4952032;28;20495;-68
2022/06/21 03:43:30;;;;;;;2.23;2.00;;;14.00;99.90;;;;;;4951603;29;20455;-68
2022/06/21 03:46:03;;;;;;;2.13;1.90;;;14.00;99.90;;;;;;4954870;28;20460;-69
2022/06/21 03:48:34;;;;;;;3.30;2.33;;;14.00;99.90;;;;;;4954955;28;20950;-69
2022/06/21 03:51:06;;;;;;;2.10;1.90;;;14.00;99.90;;;;;;4951769;29;20822;-69
2022/06/21 03:53:36;;;;;;;2.00;1.87;;;14.00;99.90;;;;;;4954998;28;20211;-69
2022/06/21 03:56:10;;;;;;;1.97;1.77;;;14.10;99.90;;;;;;4955415;28;20460;-70
2022/06/21 03:58:49;;;;;;;1.97;1.80;;;14.10;99.90;;;;;;4954979;28;20551;-69
2022/06/21 04:01:21;;;;;;;4.13;2.30;;;14.10;99.90;;;;;;4954008;28;20842;-70
2022/06/21 04:03:54;;;;;;;1.87;1.77;;;14.10;99.90;;;;;;4952523;29;20471;-68
2022/06/21 04:06:26;;;;;;;5.23;2.30;;;14.20;99.90;;;;;;4953842;28;20467;-69
2022/06/21 04:09:00;;;;;;;3.20;2.10;;;14.20;99.90;;;;;;4953118;28;20470;-68
2022/06/21 04:11:32;;;;;;;2.13;1.93;;;14.20;99.90;;;;;;4952974;28;20467;-70
2022/06/21 04:14:05;;;;;;;3.70;2.20;;;14.20;99.90;;;;;;4953382;28;20956;-68
2022/06/21 04:16:37;;;;;;;2.37;1.60;;;14.30;99.90;;;;;;4954397;28;20570;-69
2022/06/21 04:19:10;;;;;;;2.30;1.97;;;14.40;99.90;;;;;;4954611;28;20463;-69
2022/06/21 04:21:43;;;;;;;2.70;2.33;;;14.40;99.90;;;;;;4955772;28;20488;-69
2022/06/21 04:24:16;;;;;;;2.73;1.90;;;14.50;99.90;;;;;;4955756;28;20466;-70
2022/06/21 04:26:47;;;;;;;3.07;1.73;;;14.50;99.90;;;;;;4955690;28;20531;-70
2022/06/21 04:29:19;;;;;;;2.00;1.80;;;14.50;99.90;;;;;;4955199;28;20467;-68
2022/06/21 04:31:52;;;;;;;3.57;2.17;;;14.60;99.90;;;;;;4955274;28;20460;-70
2022/06/21 04:34:24;;;;;;;3.40;2.20;;;14.60;99.90;;;;;;4955796;28;20459;-69
2022/06/21 04:36:57;;;;;;;3.80;1.90;;;14.60;99.90;;;;;;4955324;28;20527;-70
2022/06/21 04:39:27;;;;;;;2.43;2.13;;;14.70;99.90;;;;;;4954840;28;20478;-70
2022/06/21 04:41:58;;;;;;;4.53;1.97;;;14.80;99.90;;;;;;4955101;28;20495;-70
2022/06/21 04:44:32;;;;;;;4.33;2.30;;;14.80;99.90;;;;;;4955587;28;20474;-70
2022/06/21 04:47:05;;;;;;;2.50;1.90;;;14.90;99.90;;;;;;4955266;28;20522;-71
2022/06/21 04:49:37;;;;;;;3.00;2.20;;;14.90;99.90;;;;;;4954597;28;20829;-70
2022/06/21 04:52:13;;;;;;;2.53;2.33;;;15.00;99.90;;;;;;4954562;28;20474;-70
2022/06/21 04:54:41;;;;;;;2.43;1.90;;;15.00;99.90;;;;;;4954957;28;21091;-68
2022/06/21 04:57:11;;;;;;;3.50;2.10;;;15.10;99.90;;;;;;4955044;28;20484;-70
2022/06/21 04:59:41;;;;;;;3.30;2.20;;;15.10;99.90;;;;;;4954161;28;20486;-69
2022/06/21 05:02:16;;;;;;;2.77;2.20;;;15.20;99.90;;;;;;4955109;28;20812;-71
2022/06/21 05:04:44;;;;;;;4.20;2.60;;;15.20;99.90;;;;;;4954899;28;20474;-69
2022/06/21 05:07:15;;;;;;;3.90;2.27;;;15.30;99.90;;;;;;4954954;28;21087;-70
2022/06/21 05:09:42;;;;;;;2.77;2.03;;;15.30;99.90;;;;;;4954185;28;20468;-70
2022/06/21 05:12:15;;;;;;;2.30;1.90;;;15.40;99.90;;;;;;4954979;28;20467;-69
2022/06/21 05:14:47;;;;;;;2.30;2.10;;;15.40;99.90;;;;;;4954799;28;20491;-69
2022/06/21 05:17:19;;;;;;;2.20;1.90;;;15.50;99.90;;;;;;4954861;28;20892;-68
2022/06/21 05:19:49;;;;;;;2.80;1.80;;;15.50;99.90;;;;;;4954066;28;20820;-69
2022/06/21 05:22:21;;;;;;;4.10;2.53;;;15.60;99.90;;;;;;4954928;28;20476;-69
2022/06/21 05:24:49;;;;;;;4.80;2.13;;;15.60;99.90;;;;;;4954776;28;20468;-70
2022/06/21 05:27:21;;;;;;;6.53;2.50;;;15.70;99.90;;;;;;4954526;28;20551;-70
2022/06/21 05:29:56;;;;;;;2.40;2.20;;;15.60;99.90;;;;;;4953813;28;20467;-70
2022/06/21 05:32:29;;;;;;;2.37;2.17;;;15.60;99.90;;;;;;4954623;28;20471;-70
2022/06/21 05:35:03;;;;;;;2.47;2.27;;;15.60;99.90;;;;;;4954361;28;20467;-70
2022/06/21 05:40:02;;;;;;;3.37;2.43;;;15.70;99.90;;;;;;4981485;28;20479;-81
2022/06/21 05:42:29;;;;;;;3.97;2.40;;;15.70;99.90;;;;;;4984386;28;20470;-80
2022/06/21 05:45:07;;;;;;;3.40;2.40;;;15.90;99.90;;;;;;4984387;28;20459;-80
2022/06/21 05:47:41;;;;;;;3.37;1.90;;;15.90;99.90;;;;;;4984744;28;20474;-82
2022/06/21 05:50:14;;;;;;;3.10;2.40;;;16.00;99.90;;;;;;4984038;28;20459;-81
2022/06/21 05:52:45;;;;;;;3.20;2.20;;;16.00;99.90;;;;;;4984457;28;20458;-80
2022/06/21 05:55:17;;;;;;;2.67;2.47;;;16.10;99.90;;;;;;4984892;28;20461;-80
2022/06/21 05:57:47;;;;;;;2.57;2.37;;;16.10;99.90;;;;;;4984607;28;20475;-81
2022/06/21 06:00:26;;;;;;;2.63;2.30;;;16.00;99.90;;;;;;4984692;28;20474;-81
2022/06/21 06:02:59;;;;;;;4.40;2.57;;;15.90;99.90;;;;;;4984398;28;20459;-80
2022/06/21 06:05:30;;;;;;;3.77;2.90;;;15.90;99.90;;;;;;4983934;28;20943;-81
2022/06/21 06:08:01;;;;;;;4.53;2.90;;;15.90;99.90;;;;;;4985847;28;20491;-82
2022/06/21 06:10:29;;;;;;;6.30;3.13;;;15.90;99.90;;;;;;4985596;28;20856;-81
2022/06/21 06:13:00;;;;;;;3.87;2.73;;;15.90;99.90;;;;;;4984658;28;20540;-82
2022/06/21 06:15:31;;;;;;;5.87;2.67;;;15.90;99.90;;;;;;4985219;28;20459;-81
2022/06/21 06:18:05;;;;;;;4.57;2.90;;;16.00;99.90;;;;;;4985224;28;20475;-81
2022/06/21 06:20:37;;;;;;;3.00;2.70;;;16.00;99.90;;;;;;4984906;28;20509;-82
2022/06/21 06:23:16;;;;;;;3.90;2.90;;;16.10;99.90;;;;;;4985016;28;20492;-81
2022/06/21 06:25:47;;;;;;;4.13;3.13;;;16.20;99.90;;;;;;4985610;28;20463;-82
2022/06/21 06:28:22;;;;;;;4.70;3.07;;;16.30;99.90;;;;;;4981047;28;20489;-82
2022/06/21 06:30:54;;;;;;;6.80;2.97;;;16.40;99.90;;;;;;4965670;28;20510;-82
2022/06/21 06:33:26;;;;;;;2.60;2.37;;;16.60;99.90;;;;;;4964958;29;20952;-82
2022/06/21 06:35:56;;;;;;;3.23;2.93;;;16.70;99.90;;;;;;4962858;29;20460;-81
2022/06/21 06:38:22;;;;;;;5.50;2.47;;;16.80;99.90;;;;;;4964948;29;21020;-81
2022/06/21 06:40:55;;;;;;;3.13;2.67;;;16.90;99.90;;;;;;4964091;29;20494;-82
2022/06/21 06:43:27;;;;;;;3.10;2.80;;;17.00;99.90;;;;;;4963369;29;20455;-82
2022/06/21 06:45:58;;;;;;;4.50;2.80;;;17.00;99.90;;;;;;4970628;28;20462;-78
2022/06/21 06:48:29;;;;;;;4.27;2.80;;;17.00;99.90;;;;;;4979083;28;20498;-81
2022/06/21 06:51:04;;;;;;;3.80;2.97;;;17.10;99.90;;;;;;4979251;28;20466;-78
2022/06/21 06:53:39;;;;;;;2.93;2.60;;;17.20;99.90;;;;;;4975353;28;20523;-78
2022/06/21 06:56:10;;;;;;;5.43;3.07;;;17.30;99.90;;;;;;4975432;28;20466;-79
2022/06/21 06:58:42;;;;;;;4.47;2.73;;;17.50;99.90;;;;;;4975757;28;20473;-80
2022/06/21 07:01:13;;;;;;;3.20;2.90;;;17.60;99.90;;;;;;4980851;28;20497;-80
2022/06/21 07:03:47;;;;;;;6.20;2.80;;;17.80;99.90;;;;;;4982094;28;20459;-81
2022/06/21 07:06:18;;;;;;;4.83;3.07;;;17.80;99.90;;;;;;4981296;28;20522;-80
2022/06/21 07:08:51;;;;;;;4.10;2.90;;;17.80;99.90;;;;;;4981915;28;20474;-81
2022/06/21 07:11:36;;;;;;;4.10;2.67;;;17.90;99.90;;;;;;4980985;28;20525;-81
2022/06/21 07:14:03;;;;;;;4.03;2.83;;;18.10;99.90;;;;;;4974409;28;20458;-79
2022/06/21 07:16:31;;;;;;;6.73;3.37;;;18.20;99.90;;;;;;4971156;28;20463;-79
2022/06/21 07:19:01;;;;;;;4.10;2.80;;;18.20;99.90;;;;;;4972623;28;20463;-78
2022/06/21 07:21:29;;;;;;;4.53;3.07;;;18.40;99.90;;;;;;4971854;28;20863;-78
2022/06/21 07:23:59;;;;;;;3.40;2.70;;;18.60;99.90;;;;;;4972436;28;20455;-78
2022/06/21 07:26:29;;;;;;;5.80;2.97;;;18.90;99.90;;;;;;4973066;28;20566;-78
2022/06/21 07:29:00;;;;;;;3.70;2.60;;;19.10;99.90;;;;;;4972351;28;20455;-78
2022/06/21 07:31:32;;;;;;;3.50;2.63;;;19.20;99.90;;;;;;4973390;28;20838;-78
2022/06/21 07:34:03;;;;;;;3.80;2.47;;;19.30;99.90;;;;;;4972809;28;20467;-79
2022/06/21 07:36:34;;;;;;;4.60;3.80;;;19.30;99.90;;;;;;4972736;28;20529;-78
2022/06/21 07:39:05;;;;;;;3.47;2.77;;;19.30;99.90;;;;;;4973349;28;20558;-78
2022/06/21 07:41:37;;;;;;;4.53;2.43;;;19.30;99.90;;;;;;4973562;28;20510;-79
2022/06/21 07:44:10;;;;;;;5.73;2.83;;;19.40;99.90;;;;;;4970542;28;20486;-79
2022/06/21 07:46:40;;;;;;;4.40;3.40;;;19.50;99.90;;;;;;4974100;28;20479;-78
2022/06/21 07:49:15;;;;;;;4.10;2.70;;;19.40;99.90;;;;;;4973576;28;20467;-79
2022/06/21 07:51:46;;;;;;;5.57;2.40;;;19.40;99.90;;;;;;4975146;28;20459;-79
2022/06/21 07:54:16;;;;;;;2.97;2.60;;;19.50;99.90;;;;;;4979741;28;20463;-78
2022/06/21 07:56:47;;;;;;;3.30;2.43;;;19.50;99.90;;;;;;4982998;28;20493;-78
2022/06/21 07:59:18;;;;;;;4.20;2.63;;;19.60;99.90;;;;;;4989156;28;20465;-79
2022/06/21 08:07:29;;;;;;;3.87;2.00;;;19.80;99.90;;;;;;4982249;28;20469;-77
2022/06/21 08:10:00;;;;;;;3.07;2.40;;;19.80;99.90;;;;;;4982646;28;20447;-78
2022/06/21 08:12:27;;;;;;;3.30;2.50;;;19.70;99.90;;;;;;4986055;28;20455;-79
2022/06/21 08:14:54;;;;;;;2.63;2.20;;;19.50;99.90;;;;;;4978442;28;20463;-77
2022/06/21 08:17:31;;;;;;;3.07;2.77;;;19.50;99.90;;;;;;4972181;28;20516;-77
2022/06/21 08:20:05;;;;;;;2.80;2.50;;;19.40;99.90;;;;;;4970211;28;20459;-76
2022/06/21 08:22:38;;;;;;;3.03;2.50;;;19.40;99.90;;;;;;4970829;28;20488;-78
2022/06/21 08:25:19;;;;;;;4.50;2.73;;;19.40;99.90;;;;;;4970564;28;21226;-77
2022/06/21 08:27:52;;;;;;;3.20;2.40;;;19.50;99.90;;;;;;4970593;28;20549;-78
2022/06/21 08:30:21;;;;;;;3.70;2.90;;;19.40;99.90;;;;;;4973990;28;20967;-76
2022/06/21 08:32:53;;;;;;;4.33;2.80;;;19.50;99.90;;;;;;4974494;28;20459;-76
2022/06/21 08:35:27;;;;;;;3.73;2.47;;;19.60;99.90;;;;;;4974288;28;20490;-77
2022/06/21 08:38:01;;;;;;;3.23;2.53;;;19.70;99.90;;;;;;4973993;28;20499;-77
2022/06/21 08:41:05;;;;;;;2.80;2.50;;;19.70;99.90;;;;;;4973441;28;20462;-77
2022/06/21 08:44:04;;;;;;;3.00;2.20;;;19.50;99.90;;;;;;4973919;28;20458;-77
2022/06/21 08:47:01;;;;;;;4.20;2.50;;;19.40;99.90;;;;;;4973756;28;20493;-78
2022/06/21 08:50:05;;;;;;;3.50;1.90;;;19.30;99.90;;;;;;4974279;28;20656;-78
2022/06/21 08:52:55;;;;;;;2.37;1.87;;;19.40;99.90;;;;;;4975131;28;20465;-78
2022/06/21 08:55:32;;;;;;;4.93;2.20;;;19.40;99.90;;;;;;4975190;28;20462;-78
2022/06/21 08:58:17;;;;;;;2.10;1.90;;;19.40;99.90;;;;;;4974312;28;20548;-79
2022/06/21 09:00:48;;;;;;;3.13;2.33;;;19.40;99.90;;;;;;4974405;28;20522;-78
2022/06/21 09:03:30;;;;;;;7.80;2.27;;;19.40;99.90;;;;;;4974731;28;20689;-78
2022/06/21 09:06:12;;;;;;;4.83;2.70;;;19.40;99.90;;;;;;4974383;28;20463;-78
2022/06/21 09:09:06;;;;;;;2.57;2.13;;;19.50;99.90;;;;;;4974587;28;20463;-78
2022/06/21 09:11:47;;;;;;;3.20;2.43;;;19.50;99.90;;;;;;4974692;28;20795;-78
2022/06/21 09:14:45;;;;;;;4.10;2.30;;;19.60;99.90;;;;;;4973550;28;20473;-78
2022/06/21 09:17:21;;;;;;;4.10;2.57;;;19.70;99.90;;;;;;4973821;28;20574;-78
2022/06/21 09:20:00;;;;;;;4.27;2.43;;;19.80;99.90;;;;;;4973155;28;20829;-78
2022/06/21 09:22:33;;;;;;;2.63;2.30;;;19.80;99.90;;;;;;4974273;28;21028;-78
2022/06/21 09:25:09;;;;;;;2.90;2.20;;;20.00;99.90;;;;;;4973528;28;20463;-78
2022/06/21 09:27:42;;;;;;;2.87;2.50;;;20.30;99.90;;;;;;4974411;28;20487;-78
2022/06/21 09:30:14;;;;;;;3.00;2.60;;;20.50;99.90;;;;;;4973482;28;21082;-78
2022/06/21 09:32:53;;;;;;;3.23;2.33;;;20.80;99.90;;;;;;4973817;28;20482;-78
2022/06/21 09:35:31;;;;;;;4.13;2.63;;;21.00;99.60;;;;;;4973467;28;20467;-77
2022/06/21 09:38:26;;;;;;;3.87;2.70;;;21.20;99.90;;;;;;4973531;28;20490;-78
2022/06/21 09:41:02;;;;;;;5.60;2.60;;;21.60;99.90;;;;;;4969869;28;20475;-78
2022/06/21 09:43:45;;;;;;;5.27;3.17;;;21.90;99.70;;;;;;4974128;28;20946;-78
2022/06/21 09:46:25;;;;;;;3.10;2.23;;;22.20;98.60;;;;;;4972629;28;20459;-78
2022/06/21 09:49:02;;;;;;;3.40;2.70;;;22.40;99.90;;;;;;4973300;28;20470;-78
2022/06/21 09:51:38;;;;;;;5.40;3.13;;;22.50;99.90;;;;;;4973002;28;20538;-78
2022/06/21 09:54:20;;;;;;;3.87;2.33;;;22.80;99.90;;;;;;4973063;28;20462;-78
2022/06/21 09:56:55;;;;;;;6.03;2.53;;;23.00;99.90;;;;;;4973948;28;20487;-78
2022/06/21 09:59:30;;;;;;;3.33;2.50;;;23.30;99.80;;;;;;4972967;28;20836;-79
2022/06/21 10:02:02;;;;;;;3.87;2.53;;;23.00;96.40;;;;;;4972827;28;20489;-78
2022/06/21 10:04:37;;;;;;;2.30;2.07;;;23.10;99.40;;;;;;4973924;28;20498;-77
2022/06/21 10:07:18;;;;;;;3.90;2.90;;;23.30;97.90;;;;;;4974885;28;20487;-78
2022/06/21 10:09:58;;;;;;;4.00;2.37;;;23.30;98.20;;;;;;4972375;28;21048;-77
2022/06/21 10:12:36;;;;;;;3.20;2.90;;;23.50;99.60;;;;;;4979354;28;20465;-77
2022/06/21 10:15:35;;;;;;;3.60;2.50;;;23.50;98.00;;;;;;4981008;28;20467;-78
2022/06/21 10:18:43;;;;;;;5.90;2.50;;;23.50;97.40;;;;;;4975315;28;20487;-77
2022/06/21 10:21:40;;;;;;;5.30;2.50;;;23.50;96.80;;;;;;4944742;28;20474;-78
2022/06/21 10:24:40;;;;;;;5.47;2.20;;;23.50;98.00;;;;;;4969921;28;20826;-78
2022/06/21 10:27:18;;;;;;;3.73;2.57;;;23.60;98.60;;;;;;4973182;28;20485;-78
2022/06/21 10:30:12;;;;;;;3.53;2.80;;;23.70;97.10;;;;;;4973016;28;21123;-78
2022/06/21 10:32:55;;;;;;;3.43;2.97;;;23.70;98.30;;;;;;4973835;28;20501;-78
2022/06/21 10:35:43;;;;;;;3.20;2.50;;;23.80;96.90;;;;;;4973680;28;20463;-78
2022/06/21 10:38:39;;;;;;;4.50;2.90;;;23.60;97.30;;;;;;4974100;28;20498;-78
2022/06/21 10:41:23;;;;;;;6.40;3.13;;;23.60;96.80;;;;;;4981023;28;20472;-78
2022/06/21 10:44:03;;;;;;;3.70;2.80;;;23.70;99.50;;;;;;4981635;28;20946;-78
2022/06/21 10:46:38;;;;;;;2.60;2.40;;;23.80;97.60;;;;;;4980561;28;20464;-78
2022/06/21 10:49:29;;;;;;;3.27;2.93;;;23.80;97.20;;;;;;4978775;28;20840;-78
2022/06/21 10:52:11;;;;;;;3.20;2.90;;;23.80;99.00;;;;;;4975136;28;20459;-78
2022/06/21 10:54:55;;;;;;;3.67;3.13;;;24.00;97.40;;;;;;4975833;28;20462;-78
2022/06/21 10:57:34;;;;;;;3.10;2.57;;;24.20;99.20;;;;;;4973337;28;20487;-79
2022/06/21 11:03:22;;;;;;;3.00;2.63;;;24.80;99.40;;;;;;4973798;28;20481;-79
2022/06/21 11:05:59;;;;;;;3.37;2.20;;;25.20;99.20;;;;;;4969056;28;20522;-78
2022/06/21 11:08:35;;;;;;;2.77;2.50;;;25.40;97.50;;;;;;4973699;28;20481;-79
2022/06/21 11:11:12;;;;;;;2.87;2.57;;;25.40;97.40;;;;;;4968427;28;20467;-78
2022/06/21 11:13:47;;;;;;;6.20;2.90;;;25.40;97.70;;;;;;4972345;28;20848;-78
2022/06/21 11:16:21;;;;;;;4.70;2.70;;;25.40;97.00;;;;;;4971871;28;20462;-78
2022/06/21 11:18:57;;;;;;;2.60;2.40;;;25.50;98.30;;;;;;4971761;28;20459;-78
2022/06/21 11:21:35;;;;;;;4.07;2.80;;;25.80;97.70;;;;;;4971766;28;20467;-78
2022/06/21 11:24:12;;;;;;;4.00;2.90;;;25.80;97.10;;;;;;4972176;28;20984;-79
2022/06/21 11:26:51;;;;;;;4.30;3.00;;;25.80;97.10;;;;;;4970687;28;20883;-79
2022/06/21 11:29:27;;;;;;;3.90;2.90;;;25.70;97.70;;;;;;4971697;28;20566;-78
2022/06/21 11:32:03;;;;;;;4.33;3.43;;;25.60;99.50;;;;;;4972887;28;20458;-79
2022/06/21 11:34:39;;;;;;;4.50;2.80;;;25.50;98.00;;;;;;4972784;28;20467;-78
2022/06/21 11:37:16;;;;;;;3.03;2.73;;;25.30;97.30;;;;;;4972101;28;20474;-78
2022/06/21 11:39:50;;;;;;;3.97;2.87;;;25.10;98.60;;;;;;4972320;28;20532;-78
2022/06/21 11:42:25;;;;;;;3.90;3.00;;;25.10;99.30;;;;;;4971872;28;20495;-78
2022/06/21 11:45:15;;;;;;;4.03;3.00;;;25.20;99.30;;;;;;4970461;28;20493;-78
2022/06/21 11:48:06;;;;;;;4.80;3.73;;;25.30;97.60;;;;;;4970441;28;20489;-78
2022/06/21 11:50:43;;;;;;;3.20;2.90;;;25.40;97.40;;;;;;4970507;28;20834;-78
2022/06/21 11:53:36;;;;;;;3.80;3.37;;;25.40;99.10;;;;;;4970633;28;20707;-78
2022/06/21 11:56:09;;;;;;;5.60;3.43;;;25.60;99.30;;;;;;4970812;28;20463;-78
2022/06/21 11:58:40;;;;;;;5.03;2.90;;;25.80;98.70;;;;;;4970890;28;20893;-78
2022/06/21 12:01:17;;;;;;;3.23;2.93;;;25.80;97.90;;;;;;4970140;28;20482;-78
2022/06/21 12:03:53;;;;;;;3.73;3.03;;;25.60;98.50;;;;;;4973695;28;20486;-78
2022/06/21 12:06:29;;;;;;;4.07;3.30;;;25.60;98.80;;;;;;4974311;28;20466;-78
2022/06/21 12:09:03;;;;;;;3.50;3.10;;;25.60;99.70;;;;;;4974325;28;20829;-78
2022/06/21 12:11:38;;;;;;;3.60;3.30;;;25.60;99.00;;;;;;4974155;28;20463;-79
2022/06/21 12:14:19;;;;;;;4.20;3.47;;;25.70;99.90;;;;;;4974343;28;20458;-78
2022/06/21 12:16:56;;;;;;;4.73;3.27;;;26.10;98.60;;;;;;4974703;28;20482;-78
2022/06/21 12:19:28;;;;;;;5.40;3.27;;;26.10;97.60;;;;;;4973580;28;20470;-78
2022/06/21 12:21:59;;;;;;;6.03;3.23;;;26.10;99.90;;;;;;4974208;28;20526;-78
2022/06/21 12:24:27;;;;;;;3.40;3.10;;;26.20;99.90;;;;;;4974329;28;20455;-78
2022/06/21 12:26:55;;;;;;;3.43;3.20;;;26.40;99.40;;;;;;4974410;28;20486;-78
2022/06/21 12:29:23;;;;;;;5.13;3.23;;;26.40;98.70;;;;;;4974309;28;20469;-79
2022/06/21 12:31:52;;;;;;;10.33;3.67;;;26.20;99.00;;;;;;4974834;28;20833;-79
2022/06/21 12:34:28;;;;;;;3.57;3.27;;;26.00;99.30;;;;;;4974794;28;20508;-78
2022/06/21 12:37:01;;;;;;;3.50;3.20;;;25.80;98.70;;;;;;4974182;28;20486;-78
2022/06/21 12:39:31;;;;;;;3.87;3.57;;;25.50;98.80;;;;;;4974010;28;20980;-77
2022/06/21 12:42:42;;;;;;;5.50;3.70;;;25.00;99.90;;;;;;4974685;28;20467;-78
2022/06/21 12:45:24;;;;;;;5.43;3.30;;;24.80;99.90;;;;;;4973777;28;20854;-75
2022/06/21 12:48:04;;;;;;;3.50;3.03;;;24.70;99.90;;;;;;4973528;28;20479;-76
2022/06/21 12:50:45;;;;;;;4.10;3.70;;;24.70;99.90;;;;;;4973230;28;20565;-75
2022/06/21 12:53:55;;;;;;;4.17;3.53;;;24.70;99.90;;;;;;4973441;28;20465;-74
2022/06/21 12:56:32;;;;;;;4.40;3.30;;;24.70;99.80;;;;;;4973056;28;20463;-76
2022/06/21 12:59:12;;;;;;;6.00;3.83;;;24.80;99.90;;;;;;4972860;28;21485;-75
2022/06/21 13:01:48;;;;;;;4.63;4.00;;;25.30;99.90;;;;;;4973644;28;20463;-76
2022/06/21 13:04:36;;;;;;;5.93;4.60;;;25.90;99.90;;;;;;4973050;28;20494;-75
2022/06/21 13:07:21;;;;;;;3.77;3.47;;;26.40;99.90;;;;;;4972513;28;20502;-74
2022/06/21 13:10:06;;;;;;;3.73;3.43;;;26.80;99.90;;;;;;4972542;28;20470;-74
2022/06/21 13:13:03;;;;;;;3.50;3.20;;;27.10;99.90;;;;;;4973280;28;20465;-75
2022/06/21 13:15:45;;;;;;;3.67;3.37;;;27.40;99.00;;;;;;4969001;28;20836;-76
2022/06/21 13:18:38;;;;;;;3.47;3.17;;;27.40;99.70;;;;;;4972947;28;20899;-76
2022/06/21 13:21:15;;;;;;;4.23;3.70;;;27.40;99.30;;;;;;4963315;28;20535;-74
2022/06/21 13:23:53;;;;;;;4.10;3.53;;;27.70;99.50;;;;;;4973216;28;20489;-76
2022/06/21 13:26:34;;;;;;;4.47;3.80;;;27.90;99.00;;;;;;4973079;28;20461;-74
2022/06/21 13:29:20;;;;;;;4.30;3.83;;;28.00;97.90;;;;;;4972624;28;20991;-74
2022/06/21 13:31:50;;;;;;;4.60;4.20;;;27.90;98.20;;;;;;4972724;28;20965;-74
2022/06/21 13:34:30;;;;;;;4.93;3.70;;;27.90;99.30;;;;;;5053614;22;21768;-73
2022/06/21 13:37:01;;;;;;;5.80;4.27;;;27.90;98.70;;;;;;4992482;28;20482;-77
2022/06/21 13:39:35;;;;;;;6.03;3.87;;;27.80;98.40;;;;;;4992421;28;20466;-74
2022/06/21 13:44:59;;;;;;;4.83;3.80;;;27.60;99.40;;;;;;4992248;28;20446;-76